sensor_id;sensor_type;location;lat;lon;timestamp;pressure;altitude;pressure_sealevel;temperature;humidity
27643;BME280;15053;48.618;10.024;2023-02-11T00:00:39;96051.00;;;-0.62;63.73
27643;BME280;15053;48.618;10.024;2023-02-11T00:03:06;96055.84;;;-0.67;64.06
27643;BME280;15053;48.618;10.024;2023-02-11T00:05:33;96058.47;;;-0.75;64.44
27643;BME280;15053;48.618;10.024;2023-02-11T00:08:00;96060.91;;;-0.81;64.37
27643;BME280;15053;48.618;10.024;2023-02-11T00:10:26;96062.56;;;-0.88;64.66
27643;BME280;15053;48.618;10.024;2023-02-11T00:12:53;96060.06;;;-0.96;64.89
27643;BME280;15053;48.618;10.024;2023-02-11T00:15:19;96065.53;;;-0.99;65.34
27643;BME280;15053;48.618;10.024;2023-02-11T00:17:46;96067.81;;;-1.04;65.17
27643;BME280;15053;48.618;10.024;2023-02-11T00:20:13;96065.91;;;-1.10;65.33
27643;BME280;15053;48.618;10.024;2023-02-11T00:22:39;96059.88;;;-1.17;65.19
27643;BME280;15053;48.618;10.024;2023-02-11T00:25:06;96066.94;;;-1.20;65.68
27643;BME280;15053;48.618;10.024;2023-02-11T00:27:32;96067.22;;;-1.14;65.27
27643;BME280;15053;48.618;10.024;2023-02-11T00:29:59;96067.22;;;-1.14;66.23
27643;BME280;15053;48.618;10.024;2023-02-11T00:32:29;96057.59;;;-1.12;66.18
27643;BME280;15053;48.618;10.024;2023-02-11T00:34:55;96068.28;;;-1.09;66.44
27643;BME280;15053;48.618;10.024;2023-02-11T00:37:22;96060.47;;;-1.07;66.80
27643;BME280;15053;48.618;10.024;2023-02-11T00:39:48;96058.53;;;-1.05;66.57
27643;BME280;15053;48.618;10.024;2023-02-11T00:42:15;96063.47;;;-1.04;66.64
27643;BME280;15053;48.618;10.024;2023-02-11T00:44:43;96055.97;;;-1.05;66.35
27643;BME280;15053;48.618;10.024;2023-02-11T00:47:10;96058.53;;;-1.05;66.46
27643;BME280;15053;48.618;10.024;2023-02-11T00:49:36;96057.28;;;-1.09;66.40
27643;BME280;15053;48.618;10.024;2023-02-11T00:52:05;96063.09;;;-1.15;66.70
27643;BME280;15053;48.618;10.024;2023-02-11T00:54:33;96059.59;;;-1.23;66.45
27643;BME280;15053;48.618;10.024;2023-02-11T00:56:59;96063.47;;;-1.27;66.38
27643;BME280;15053;48.618;10.024;2023-02-11T00:59:26;96071.28;;;-1.28;66.04
27643;BME280;15053;48.618;10.024;2023-02-11T01:01:52;96060.09;;;-1.27;66.57
27643;BME280;15053;48.618;10.024;2023-02-11T01:04:19;96047.66;;;-1.30;66.63
27643;BME280;15053;48.618;10.024;2023-02-11T01:06:46;96037.59;;;-1.32;66.60
27643;BME280;15053;48.618;10.024;2023-02-11T01:09:12;96042.72;;;-1.32;66.61
27643;BME280;15053;48.618;10.024;2023-02-11T01:11:39;96038.59;;;-1.33;66.64
27643;BME280;15053;48.618;10.024;2023-02-11T01:14:05;96042.09;;;-1.34;66.54
27643;BME280;15053;48.618;10.024;2023-02-11T01:16:32;96033.47;;;-1.33;67.31
27643;BME280;15053;48.618;10.024;2023-02-11T01:18:58;96030.91;;;-1.33;66.79
27643;BME280;15053;48.618;10.024;2023-02-11T01:21:24;96033.94;;;-1.29;67.06
27643;BME280;15053;48.618;10.024;2023-02-11T01:23:51;96017.63;;;-1.28;66.80
27643;BME280;15053;48.618;10.024;2023-02-11T01:26:18;96007.59;;;-1.30;67.08
27643;BME280;15053;48.618;10.024;2023-02-11T01:28:45;96006.00;;;-1.31;66.75
27643;BME280;15053;48.618;10.024;2023-02-11T01:31:11;96016.53;;;-1.34;66.73
27643;BME280;15053;48.618;10.024;2023-02-11T01:33:38;96022.44;;;-1.33;67.15
27643;BME280;15053;48.618;10.024;2023-02-11T01:36:05;96023.59;;;-1.36;66.93
27643;BME280;15053;48.618;10.024;2023-02-11T01:38:33;96027.44;;;-1.40;66.89
27643;BME280;15053;48.618;10.024;2023-02-11T01:41:04;96010.88;;;-1.44;66.90
27643;BME280;15053;48.618;10.024;2023-02-11T01:43:33;96000.31;;;-1.41;67.21
27643;BME280;15053;48.618;10.024;2023-02-11T01:46:27;95991.19;;;-1.35;67.26
27643;BME280;15053;48.618;10.024;2023-02-11T01:48:57;95981.41;;;-1.32;67.29
27643;BME280;15053;48.618;10.024;2023-02-11T01:51:26;95978.50;;;-1.29;67.65
27643;BME280;15053;48.618;10.024;2023-02-11T01:53:56;95971.81;;;-1.30;67.81
27643;BME280;15053;48.618;10.024;2023-02-11T01:56:46;95963.97;;;-1.28;67.94
27643;BME280;15053;48.618;10.024;2023-02-11T01:59:40;95951.81;;;-1.26;67.46
27643;BME280;15053;48.618;10.024;2023-02-11T02:02:11;95960.88;;;-1.24;67.43
27643;BME280;15053;48.618;10.024;2023-02-11T02:04:45;95965.84;;;-1.22;67.42
27643;BME280;15053;48.618;10.024;2023-02-11T02:07:26;95972.09;;;-1.25;67.75
27643;BME280;15053;48.618;10.024;2023-02-11T02:10:01;95967.94;;;-1.26;67.73
27643;BME280;15053;48.618;10.024;2023-02-11T02:12:28;95966.72;;;-1.30;67.31
27643;BME280;15053;48.618;10.024;2023-02-11T02:15:17;95960.34;;;-1.34;66.91
27643;BME280;15053;48.618;10.024;2023-02-11T02:17:53;95969.00;;;-1.43;66.51
27643;BME280;15053;48.618;10.024;2023-02-11T02:23:15;95978.22;;;-1.56;66.54
27643;BME280;15053;48.618;10.024;2023-02-11T02:26:00;95972.81;;;-1.61;66.45
27643;BME280;15053;48.618;10.024;2023-02-11T02:34:33;95961.69;;;-1.68;67.57
27643;BME280;15053;48.618;10.024;2023-02-11T02:37:12;95963.91;;;-1.65;67.82
27643;BME280;15053;48.618;10.024;2023-02-11T02:39:44;95954.50;;;-1.65;67.95
27643;BME280;15053;48.618;10.024;2023-02-11T02:42:13;95955.13;;;-1.63;67.88
27643;BME280;15053;48.618;10.024;2023-02-11T02:44:47;95948.69;;;-1.59;68.33
27643;BME280;15053;48.618;10.024;2023-02-11T02:47:15;95950.56;;;-1.53;68.09
27643;BME280;15053;48.618;10.024;2023-02-11T02:49:41;95953.75;;;-1.51;68.47
27643;BME280;15053;48.618;10.024;2023-02-11T02:52:16;95951.84;;;-1.49;68.01
27643;BME280;15053;48.618;10.024;2023-02-11T02:54:58;95946.28;;;-1.52;68.28
27643;BME280;15053;48.618;10.024;2023-02-11T03:08:33;95927.97;;;-1.64;68.81
27643;BME280;15053;48.618;10.024;2023-02-11T03:11:02;95934.78;;;-1.56;68.68
27643;BME280;15053;48.618;10.024;2023-02-11T03:13:32;95928.22;;;-1.51;68.70
27643;BME280;15053;48.618;10.024;2023-02-11T03:16:06;95922.09;;;-1.42;69.46
27643;BME280;15053;48.618;10.024;2023-02-11T03:18:35;95929.19;;;-1.29;69.32
27643;BME280;15053;48.618;10.024;2023-02-11T03:21:04;95916.50;;;-1.23;69.31
27643;BME280;15053;48.618;10.024;2023-02-11T03:23:41;95919.97;;;-1.15;69.31
27643;BME280;15053;48.618;10.024;2023-02-11T03:26:30;95920.25;;;-1.10;69.14
27643;BME280;15053;48.618;10.024;2023-02-11T03:29:06;95912.72;;;-1.12;69.42
27643;BME280;15053;48.618;10.024;2023-02-11T03:31:45;95911.94;;;-1.12;69.11
27643;BME280;15053;48.618;10.024;2023-02-11T03:34:29;95915.94;;;-1.10;68.85
27643;BME280;15053;48.618;10.024;2023-02-11T03:37:01;95915.41;;;-1.05;69.26
27643;BME280;15053;48.618;10.024;2023-02-11T03:39:35;95900.66;;;-1.03;69.37
27643;BME280;15053;48.618;10.024;2023-02-11T03:42:05;95904.63;;;-1.01;69.29
27643;BME280;15053;48.618;10.024;2023-02-11T03:44:36;95902.81;;;-0.92;69.16
27643;BME280;15053;48.618;10.024;2023-02-11T03:47:04;95911.72;;;-0.88;68.97
27643;BME280;15053;48.618;10.024;2023-02-11T03:49:34;95924.16;;;-0.85;69.06
27643;BME280;15053;48.618;10.024;2023-02-11T03:52:03;95926.97;;;-0.80;69.10
27643;BME280;15053;48.618;10.024;2023-02-11T03:54:32;95925.13;;;-0.72;68.87
27643;BME280;15053;48.618;10.024;2023-02-11T03:57:00;95928.75;;;-0.66;69.27
27643;BME280;15053;48.618;10.024;2023-02-11T03:59:27;95945.16;;;-0.61;69.54
27643;BME280;15053;48.618;10.024;2023-02-11T04:01:54;95946.22;;;-0.55;69.36
27643;BME280;15053;48.618;10.024;2023-02-11T04:04:21;95941.28;;;-0.42;69.81
27643;BME280;15053;48.618;10.024;2023-02-11T04:06:47;95940.94;;;-0.39;69.31
27643;BME280;15053;48.618;10.024;2023-02-11T04:09:15;95945.41;;;-0.41;69.67
27643;BME280;15053;48.618;10.024;2023-02-11T04:11:41;95957.25;;;-0.40;68.83
27643;BME280;15053;48.618;10.024;2023-02-11T04:14:08;95955.03;;;-0.43;68.97
27643;BME280;15053;48.618;10.024;2023-02-11T04:16:34;95964.91;;;-0.40;69.99
27643;BME280;15053;48.618;10.024;2023-02-11T04:19:01;95959.63;;;-0.38;69.35
27643;BME280;15053;48.618;10.024;2023-02-11T04:21:27;95953.19;;;-0.34;69.26
27643;BME280;15053;48.618;10.024;2023-02-11T04:23:54;95948.88;;;-0.34;69.22
27643;BME280;15053;48.618;10.024;2023-02-11T04:26:20;95950.44;;;-0.33;69.05
27643;BME280;15053;48.618;10.024;2023-02-11T04:28:47;95951.25;;;-0.32;69.53
27643;BME280;15053;48.618;10.024;2023-02-11T04:31:13;95946.75;;;-0.30;69.23
27643;BME280;15053;48.618;10.024;2023-02-11T04:33:40;95949.66;;;-0.33;69.02
27643;BME280;15053;48.618;10.024;2023-02-11T04:36:07;95944.44;;;-0.40;69.26
27643;BME280;15053;48.618;10.024;2023-02-11T04:38:33;95944.81;;;-0.43;68.54
27643;BME280;15053;48.618;10.024;2023-02-11T04:41:00;95937.75;;;-0.41;69.38
27643;BME280;15053;48.618;10.024;2023-02-11T04:43:26;95941.34;;;-0.35;69.53
27643;BME280;15053;48.618;10.024;2023-02-11T04:45:56;95951.25;;;-0.32;69.33
27643;BME280;15053;48.618;10.024;2023-02-11T04:48:23;95944.97;;;-0.30;69.83
27643;BME280;15053;48.618;10.024;2023-02-11T04:50:50;95948.59;;;-0.24;69.37
27643;BME280;15053;48.618;10.024;2023-02-11T04:53:16;95953.81;;;-0.18;69.63
27643;BME280;15053;48.618;10.024;2023-02-11T04:55:43;95957.41;;;-0.12;70.02
27643;BME280;15053;48.618;10.024;2023-02-11T04:58:09;95949.97;;;-0.07;69.79
27643;BME280;15053;48.618;10.024;2023-02-11T05:00:35;95945.31;;;-0.04;70.19
27643;BME280;15053;48.618;10.024;2023-02-11T05:03:02;95951.28;;;0.04;70.18
27643;BME280;15053;48.618;10.024;2023-02-11T05:05:29;95944.41;;;0.04;69.85
27643;BME280;15053;48.618;10.024;2023-02-11T05:07:55;95939.09;;;0.06;70.34
27643;BME280;15053;48.618;10.024;2023-02-11T05:10:22;95928.69;;;0.07;69.89
27643;BME280;15053;48.618;10.024;2023-02-11T05:12:48;95923.38;;;0.09;69.46
27643;BME280;15053;48.618;10.024;2023-02-11T05:15:15;95919.50;;;0.13;69.05
27643;BME280;15053;48.618;10.024;2023-02-11T05:17:41;95919.13;;;0.16;69.14
27643;BME280;15053;48.618;10.024;2023-02-11T05:20:08;95916.22;;;0.19;69.94
27643;BME280;15053;48.618;10.024;2023-02-11T05:22:35;95917.78;;;0.20;69.90
27643;BME280;15053;48.618;10.024;2023-02-11T05:25:02;95920.63;;;0.25;70.13
27643;BME280;15053;48.618;10.024;2023-02-11T05:27:28;95922.44;;;0.31;70.12
27643;BME280;15053;48.618;10.024;2023-02-11T05:29:55;95906.34;;;0.37;69.31
27643;BME280;15053;48.618;10.024;2023-02-11T05:32:21;95896.31;;;0.42;69.05
27643;BME280;15053;48.618;10.024;2023-02-11T05:34:48;95898.53;;;0.45;69.15
27643;BME280;15053;48.618;10.024;2023-02-11T05:37:14;95893.47;;;0.51;69.70
27643;BME280;15053;48.618;10.024;2023-02-11T05:39:41;95868.66;;;0.52;69.05
27643;BME280;15053;48.618;10.024;2023-02-11T05:42:08;95875.94;;;0.55;69.63
27643;BME280;15053;48.618;10.024;2023-02-11T05:44:34;95876.94;;;0.54;69.13
27643;BME280;15053;48.618;10.024;2023-02-11T05:47:01;95891.16;;;0.56;70.05
27643;BME280;15053;48.618;10.024;2023-02-11T05:49:28;95903.75;;;0.58;69.78
27643;BME280;15053;48.618;10.024;2023-02-11T05:51:55;95905.34;;;0.59;68.83
27643;BME280;15053;48.618;10.024;2023-02-11T05:54:21;95906.16;;;0.59;69.20
27643;BME280;15053;48.618;10.024;2023-02-11T05:56:47;95907.72;;;0.60;69.88
27643;BME280;15053;48.618;10.024;2023-02-11T05:59:14;95906.97;;;0.60;69.58
27643;BME280;15053;48.618;10.024;2023-02-11T06:01:41;95899.88;;;0.62;69.38
27643;BME280;15053;48.618;10.024;2023-02-11T06:04:08;95893.78;;;0.63;69.44
27643;BME280;15053;48.618;10.024;2023-02-11T06:06:34;95902.06;;;0.65;69.29
27643;BME280;15053;48.618;10.024;2023-02-11T06:09:01;95906.03;;;0.68;69.94
27643;BME280;15053;48.618;10.024;2023-02-11T06:11:28;95885.94;;;0.71;69.21
27643;BME280;15053;48.618;10.024;2023-02-11T06:13:54;95889.13;;;0.73;68.87
27643;BME280;15053;48.618;10.024;2023-02-11T06:16:21;95887.16;;;0.75;69.82
27643;BME280;15053;48.618;10.024;2023-02-11T06:18:47;95894.47;;;0.78;69.63
27643;BME280;15053;48.618;10.024;2023-02-11T06:21:14;95887.22;;;0.82;68.87
27643;BME280;15053;48.618;10.024;2023-02-11T06:23:40;95905.56;;;0.85;69.51
27643;BME280;15053;48.618;10.024;2023-02-11T06:26:15;95902.47;;;0.90;68.56
27643;BME280;15053;48.618;10.024;2023-02-11T06:28:43;95899.53;;;0.93;69.18
27643;BME280;15053;48.618;10.024;2023-02-11T06:31:09;95904.09;;;0.97;68.41
27643;BME280;15053;48.618;10.024;2023-02-11T06:33:37;95909.66;;;1.01;67.92
27643;BME280;15053;48.618;10.024;2023-02-11T06:36:11;95917.16;;;1.02;68.16
27643;BME280;15053;48.618;10.024;2023-02-11T06:38:37;95909.66;;;1.01;67.89
27643;BME280;15053;48.618;10.024;2023-02-11T06:41:04;95909.28;;;1.04;68.16
27643;BME280;15053;48.618;10.024;2023-02-11T06:43:30;95921.91;;;1.05;68.16
27643;BME280;15053;48.618;10.024;2023-02-11T06:45:57;95922.69;;;1.06;68.84
27643;BME280;15053;48.618;10.024;2023-02-11T06:48:23;95931.00;;;1.08;68.38
27643;BME280;15053;48.618;10.024;2023-02-11T06:50:50;95921.91;;;1.05;68.56
27643;BME280;15053;48.618;10.024;2023-02-11T06:53:16;95935.69;;;1.04;69.36
27643;BME280;15053;48.618;10.024;2023-02-11T06:55:43;95933.75;;;1.06;69.65
27643;BME280;15053;48.618;10.024;2023-02-11T06:58:09;95932.59;;;1.09;69.71
27643;BME280;15053;48.618;10.024;2023-02-11T07:00:36;95923.53;;;1.13;69.69
27643;BME280;15053;48.618;10.024;2023-02-11T07:03:03;95915.47;;;1.16;69.56
27643;BME280;15053;48.618;10.024;2023-02-11T07:05:29;95928.72;;;1.19;69.84
27643;BME280;15053;48.618;10.024;2023-02-11T07:07:56;95923.59;;;1.19;68.97
27643;BME280;15053;48.618;10.024;2023-02-11T07:10:22;95932.50;;;1.24;69.86
27643;BME280;15053;48.618;10.024;2023-02-11T07:12:49;95937.44;;;1.25;69.16
27643;BME280;15053;48.618;10.024;2023-02-11T07:15:15;95927.59;;;1.29;69.75
27643;BME280;15053;48.618;10.024;2023-02-11T07:17:42;95921.91;;;1.33;69.16
27643;BME280;15053;48.618;10.024;2023-02-11T07:20:08;95916.41;;;1.36;69.04
27643;BME280;15053;48.618;10.024;2023-02-11T07:22:37;95921.75;;;1.41;69.60
27643;BME280;15053;48.618;10.024;2023-02-11T07:25:04;95905.78;;;1.46;68.97
27643;BME280;15053;48.618;10.024;2023-02-11T07:27:31;95905.03;;;1.52;69.12
27643;BME280;15053;48.618;10.024;2023-02-11T07:29:57;95914.34;;;1.59;69.62
27643;BME280;15053;48.618;10.024;2023-02-11T07:32:24;95902.91;;;1.62;69.62
27643;BME280;15053;48.618;10.024;2023-02-11T07:34:50;95897.22;;;1.66;68.58
27643;BME280;15053;48.618;10.024;2023-02-11T07:37:17;95893.47;;;1.69;69.11
27643;BME280;15053;48.618;10.024;2023-02-11T07:39:44;95898.22;;;1.72;68.90
27643;BME280;15053;48.618;10.024;2023-02-11T07:42:10;95901.97;;;1.76;68.80
27643;BME280;15053;48.618;10.024;2023-02-11T07:44:37;95899.03;;;1.79;69.51
27643;BME280;15053;48.618;10.024;2023-02-11T07:47:03;95903.19;;;1.80;68.82
27643;BME280;15053;48.618;10.024;2023-02-11T07:49:30;95914.44;;;1.79;69.37
27643;BME280;15053;48.618;10.024;2023-02-11T07:51:56;95917.00;;;1.79;69.37
27643;BME280;15053;48.618;10.024;2023-02-11T07:54:23;95918.97;;;1.77;68.46
27643;BME280;15053;48.618;10.024;2023-02-11T07:56:49;95917.22;;;1.77;69.10
27643;BME280;15053;48.618;10.024;2023-02-11T07:59:16;95919.41;;;1.81;69.10
27643;BME280;15053;48.618;10.024;2023-02-11T08:01:43;95927.50;;;1.84;68.75
27643;BME280;15053;48.618;10.024;2023-02-11T08:04:09;95923.56;;;1.88;68.48
27643;BME280;15053;48.618;10.024;2023-02-11T08:06:40;95926.72;;;1.90;68.31
27643;BME280;15053;48.618;10.024;2023-02-11T08:09:07;95933.47;;;1.91;69.07
27643;BME280;15053;48.618;10.024;2023-02-11T08:11:34;95923.41;;;1.96;68.47
27643;BME280;15053;48.618;10.024;2023-02-11T08:14:01;95923.19;;;1.91;68.56
27643;BME280;15053;48.618;10.024;2023-02-11T08:16:30;95933.88;;;2.01;69.72
27643;BME280;15053;48.618;10.024;2023-02-11T08:19:00;95933.16;;;2.14;69.15
27643;BME280;15053;48.618;10.024;2023-02-11T08:21:27;95929.25;;;2.24;69.72
27643;BME280;15053;48.618;10.024;2023-02-11T08:23:54;95927.91;;;2.42;69.54
27643;BME280;15053;48.618;10.024;2023-02-11T08:26:24;95922.56;;;2.56;69.42
27643;BME280;15053;48.618;10.024;2023-02-11T08:28:53;95924.97;;;2.64;69.23
27643;BME280;15053;48.618;10.024;2023-02-11T08:31:23;95923.00;;;2.73;68.89
27643;BME280;15053;48.618;10.024;2023-02-11T08:33:51;95918.66;;;2.80;68.81
27643;BME280;15053;48.618;10.024;2023-02-11T08:36:25;95926.19;;;2.88;69.35
27643;BME280;15053;48.618;10.024;2023-02-11T08:38:53;95926.56;;;2.85;69.63
27643;BME280;15053;48.618;10.024;2023-02-11T08:41:37;95926.56;;;2.85;69.97
27643;BME280;15053;48.618;10.024;2023-02-11T08:44:04;95923.41;;;2.83;69.41
27643;BME280;15053;48.618;10.024;2023-02-11T08:46:30;95920.44;;;2.79;70.25
27643;BME280;15053;48.618;10.024;2023-02-11T08:48:57;95940.41;;;2.84;70.09
27643;BME280;15053;48.618;10.024;2023-02-11T08:51:26;95939.63;;;2.90;69.83
27643;BME280;15053;48.618;10.024;2023-02-11T08:53:54;95934.91;;;2.93;70.02
27643;BME280;15053;48.618;10.024;2023-02-11T08:56:21;95923.78;;;2.99;70.12
27643;BME280;15053;48.618;10.024;2023-02-11T08:58:51;95928.94;;;3.06;70.45
27643;BME280;15053;48.618;10.024;2023-02-11T09:01:24;95914.28;;;3.13;70.05
27643;BME280;15053;48.618;10.024;2023-02-11T09:03:52;95921.03;;;3.21;70.62
27643;BME280;15053;48.618;10.024;2023-02-11T09:06:20;95916.47;;;3.29;70.71
27643;BME280;15053;48.618;10.024;2023-02-11T09:08:49;95915.47;;;3.37;70.51
27643;BME280;15053;48.618;10.024;2023-02-11T09:11:18;95922.19;;;3.44;70.77
27643;BME280;15053;48.618;10.024;2023-02-11T09:13:45;95916.22;;;3.50;70.63
27643;BME280;15053;48.618;10.024;2023-02-11T09:16:20;95898.97;;;3.57;70.68
27643;BME280;15053;48.618;10.024;2023-02-11T09:18:48;95897.00;;;3.60;70.81
27643;BME280;15053;48.618;10.024;2023-02-11T09:21:16;95905.31;;;3.62;70.99
27643;BME280;15053;48.618;10.024;2023-02-11T09:23:42;95895.75;;;3.69;70.63
27643;BME280;15053;48.618;10.024;2023-02-11T09:26:15;95902.06;;;3.86;70.84
27643;BME280;15053;48.618;10.024;2023-02-11T09:28:42;95910.69;;;4.04;70.33
27643;BME280;15053;48.618;10.024;2023-02-11T09:31:12;95913.03;;;4.12;70.03
27643;BME280;15053;48.618;10.024;2023-02-11T09:33:40;95904.91;;;4.15;70.11
27643;BME280;15053;48.618;10.024;2023-02-11T09:36:15;95906.41;;;4.30;70.40
27643;BME280;15053;48.618;10.024;2023-02-11T09:38:43;95911.66;;;4.48;70.41
27643;BME280;15053;48.618;10.024;2023-02-11T09:43:51;95898.75;;;4.79;69.35
27643;BME280;15053;48.618;10.024;2023-02-11T09:46:20;95899.69;;;4.91;69.18
27643;BME280;15053;48.618;10.024;2023-02-11T09:48:49;95891.28;;;4.96;68.87
27643;BME280;15053;48.618;10.024;2023-02-11T09:51:39;95890.59;;;5.07;68.64
27643;BME280;15053;48.618;10.024;2023-02-11T09:54:36;95897.94;;;5.10;68.83
27643;BME280;15053;48.618;10.024;2023-02-11T09:57:01;95897.66;;;5.18;68.91
27643;BME280;15053;48.618;10.024;2023-02-11T09:59:27;95896.81;;;5.24;68.23
27643;BME280;15053;48.618;10.024;2023-02-11T10:02:03;95894.38;;;5.29;67.88
27643;BME280;15053;48.618;10.024;2023-02-11T10:07:38;95896.69;;;5.37;67.63
27643;BME280;15053;48.618;10.024;2023-02-11T10:10:28;95900.88;;;5.38;68.11
27643;BME280;15053;48.618;10.024;2023-02-11T10:16:00;95912.91;;;5.44;68.21
27643;BME280;15053;48.618;10.024;2023-02-11T10:21:18;95906.78;;;6.00;67.22
27643;BME280;15053;48.618;10.024;2023-02-11T10:23:53;95901.31;;;6.26;66.28
27643;BME280;15053;48.618;10.024;2023-02-11T10:26:21;95909.50;;;6.52;65.94
27643;BME280;15053;48.618;10.024;2023-02-11T10:28:51;95904.91;;;6.66;65.16
27643;BME280;15053;48.618;10.024;2023-02-11T10:31:27;95903.28;;;6.83;64.28
27643;BME280;15053;48.618;10.024;2023-02-11T10:34:03;95899.72;;;7.07;64.25
27643;BME280;15053;48.618;10.024;2023-02-11T10:36:34;95895.00;;;7.28;64.05
27643;BME280;15053;48.618;10.024;2023-02-11T10:39:13;95893.97;;;7.29;63.31
27643;BME280;15053;48.618;10.024;2023-02-11T10:41:46;95898.81;;;7.48;63.10
27643;BME280;15053;48.618;10.024;2023-02-11T10:46:49;95893.94;;;7.75;62.15
27643;BME280;15053;48.618;10.024;2023-02-11T10:54:38;95899.19;;;8.03;61.44
27643;BME280;15053;48.618;10.024;2023-02-11T10:57:05;95879.84;;;8.22;60.09
27643;BME280;15053;48.618;10.024;2023-02-11T10:59:36;95883.22;;;8.35;59.60
27643;BME280;15053;48.618;10.024;2023-02-11T11:02:24;95886.34;;;8.37;58.19
27643;BME280;15053;48.618;10.024;2023-02-11T11:04:58;95890.66;;;8.19;58.79
27643;BME280;15053;48.618;10.024;2023-02-11T11:07:28;95897.34;;;8.15;57.84
27643;BME280;15053;48.618;10.024;2023-02-11T11:10:05;95885.09;;;7.99;57.73
27643;BME280;15053;48.618;10.024;2023-02-11T11:12:36;95876.75;;;7.97;58.67
27643;BME280;15053;48.618;10.024;2023-02-11T11:17:41;95872.97;;;8.16;58.31
27643;BME280;15053;48.618;10.024;2023-02-11T11:20:28;95868.81;;;8.15;58.25
27643;BME280;15053;48.618;10.024;2023-02-11T11:23:30;95855.47;;;8.23;58.65
27643;BME280;15053;48.618;10.024;2023-02-11T11:25:59;95843.31;;;8.41;58.76
27643;BME280;15053;48.618;10.024;2023-02-11T11:28:37;95853.13;;;8.67;57.91
27643;BME280;15053;48.618;10.024;2023-02-11T11:31:12;95845.81;;;8.80;57.81
27643;BME280;15053;48.618;10.024;2023-02-11T11:33:41;95854.00;;;8.89;57.17
27643;BME280;15053;48.618;10.024;2023-02-11T11:36:12;95858.34;;;9.00;56.58
27643;BME280;15053;48.618;10.024;2023-02-11T11:38:57;95857.41;;;9.06;56.93
27643;BME280;15053;48.618;10.024;2023-02-11T11:41:26;95858.72;;;9.09;55.64
27643;BME280;15053;48.618;10.024;2023-02-11T11:46:38;95860.34;;;9.15;55.76
27643;BME280;15053;48.618;10.024;2023-02-11T11:49:16;95868.00;;;9.21;54.38
27643;BME280;15053;48.618;10.024;2023-02-11T11:54:32;95858.53;;;9.32;55.16
27643;BME280;15053;48.618;10.024;2023-02-11T11:57:10;95861.03;;;9.43;54.18
27643;BME280;15053;48.618;10.024;2023-02-11T11:59:37;95868.78;;;9.38;54.69
27643;BME280;15053;48.618;10.024;2023-02-11T12:02:16;95867.34;;;9.47;53.98
27643;BME280;15053;48.618;10.024;2023-02-11T12:10:30;95853.34;;;10.35;53.50
27643;BME280;15053;48.618;10.024;2023-02-11T12:27:16;95852.78;;;10.60;51.15
27643;BME280;15053;48.618;10.024;2023-02-11T12:33:03;95852.25;;;10.90;50.71
27643;BME280;15053;48.618;10.024;2023-02-11T12:39:09;95861.50;;;11.07;49.74
27643;BME280;15053;48.618;10.024;2023-02-11T12:44:13;95842.84;;;10.89;50.10
27643;BME280;15053;48.618;10.024;2023-02-11T12:47:04;95831.94;;;10.60;50.19
27643;BME280;15053;48.618;10.024;2023-02-11T12:49:52;95838.59;;;10.46;50.70
27643;BME280;15053;48.618;10.024;2023-02-11T12:52:36;95833.56;;;10.39;50.81
27643;BME280;15053;48.618;10.024;2023-02-11T12:55:22;95835.59;;;10.11;51.03
27643;BME280;15053;48.618;10.024;2023-02-11T12:57:51;95838.19;;;9.89;51.86
27643;BME280;15053;48.618;10.024;2023-02-11T13:00:26;95835.66;;;9.50;52.18
27643;BME280;15053;48.618;10.024;2023-02-11T13:03:04;95836.22;;;9.14;52.72
27643;BME280;15053;48.618;10.024;2023-02-11T13:05:42;95840.75;;;9.07;52.56
27643;BME280;15053;48.618;10.024;2023-02-11T13:08:29;95849.59;;;9.06;53.11
27643;BME280;15053;48.618;10.024;2023-02-11T13:11:01;95833.91;;;9.01;53.48
27643;BME280;15053;48.618;10.024;2023-02-11T13:13:34;95829.50;;;8.85;53.88
27643;BME280;15053;48.618;10.024;2023-02-11T13:16:06;95837.63;;;8.72;53.66
27643;BME280;15053;48.618;10.024;2023-02-11T13:18:59;95830.69;;;8.61;55.06
27643;BME280;15053;48.618;10.024;2023-02-11T13:21:35;95832.88;;;8.52;54.63
27643;BME280;15053;48.618;10.024;2023-02-11T13:32:12;95834.38;;;8.48;55.45
27643;BME280;15053;48.618;10.024;2023-02-11T13:37:35;95829.28;;;8.70;55.49
27643;BME280;15053;48.618;10.024;2023-02-11T13:40:21;95827.09;;;8.78;55.13
27643;BME280;15053;48.618;10.024;2023-02-11T13:42:56;95817.63;;;8.89;55.87
27643;BME280;15053;48.618;10.024;2023-02-11T13:45:32;95820.84;;;8.96;54.88
27643;BME280;15053;48.618;10.024;2023-02-11T13:48:02;95816.75;;;9.00;55.02
27643;BME280;15053;48.618;10.024;2023-02-11T13:50:36;95824.56;;;9.00;55.01
27643;BME280;15053;48.618;10.024;2023-02-11T13:53:05;95819.50;;;9.10;55.16
27643;BME280;15053;48.618;10.024;2023-02-11T13:55:33;95811.03;;;8.98;54.42
27643;BME280;15053;48.618;10.024;2023-02-11T14:14:16;95818.56;;;8.50;54.86
27643;BME280;15053;48.618;10.024;2023-02-11T14:19:52;95808.56;;;8.42;54.70
27643;BME280;15053;48.618;10.024;2023-02-11T14:22:28;95812.56;;;8.32;55.29
27643;BME280;15053;48.618;10.024;2023-02-11T14:24:59;95813.47;;;8.26;55.63
27643;BME280;15053;48.618;10.024;2023-02-11T14:27:43;95811.88;;;8.25;55.71
27643;BME280;15053;48.618;10.024;2023-02-11T14:36:18;95808.94;;;8.05;56.40
27643;BME280;15053;48.618;10.024;2023-02-11T14:41:44;95809.03;;;7.82;56.40
27643;BME280;15053;48.618;10.024;2023-02-11T14:44:17;95814.13;;;7.77;56.44
27643;BME280;15053;48.618;10.024;2023-02-11T14:46:46;95803.09;;;7.70;57.00
27643;BME280;15053;48.618;10.024;2023-02-11T14:49:29;95801.41;;;7.64;57.33
27643;BME280;15053;48.618;10.024;2023-02-11T14:52:30;95801.19;;;7.65;57.78
27643;BME280;15053;48.618;10.024;2023-02-11T14:55:38;95799.25;;;7.61;58.41
27643;BME280;15053;48.618;10.024;2023-02-11T15:03:41;95801.13;;;7.49;58.75
27643;BME280;15053;48.618;10.024;2023-02-11T15:06:22;95797.53;;;7.38;58.85
27643;BME280;15053;48.618;10.024;2023-02-11T15:08:59;95814.88;;;7.38;58.85
27643;BME280;15053;48.618;10.024;2023-02-11T15:11:28;95810.16;;;7.35;59.00
27643;BME280;15053;48.618;10.024;2023-02-11T15:13:58;95811.94;;;7.34;59.15